Time;durP1;ratioP1;P1;durP2;ratioP2;P2;SDS_P1;SDS_P2;PMS_P1;PMS_P2;Temp;Humidity;BMP_temperature;BMP_pressure;BME280_temperature;BME280_humidity;BME280_pressure;Samples;Min_cycle;Max_cycle;Signal;HPM_P1;HPM_P2
2023/01/02 00:02:18;;;;;;;14.13;4.80;;;;;;;10.65;100.00;100869.13;5010929;28;20028;-75
2023/01/02 00:04:44;;;;;;;6.88;5.05;;;;;;;10.63;100.00;100864.78;5012033;28;20030;-74
2023/01/02 00:07:09;;;;;;;12.20;4.97;;;;;;;10.68;100.00;100876.22;5028370;28;20045;-75
2023/01/02 00:09:34;;;;;;;11.35;4.68;;;;;;;10.75;100.00;100884.78;5031156;28;20112;-75
2023/01/02 00:12:00;;;;;;;10.50;5.47;;;;;;;10.78;100.00;100876.41;5012965;28;20038;-75
2023/01/02 00:14:25;;;;;;;10.88;5.05;;;;;;;10.82;100.00;100877.91;5011303;28;20045;-75
2023/01/02 00:16:50;;;;;;;15.35;5.68;;;;;;;10.86;100.00;100882.16;5010283;28;20037;-75
2023/01/02 00:19:16;;;;;;;16.45;5.47;;;;;;;10.86;100.00;100879.44;5011400;28;20050;-75
2023/01/02 00:21:41;;;;;;;16.33;6.03;;;;;;;10.88;100.00;100875.63;5011141;28;20135;-74
2023/01/02 00:24:07;;;;;;;14.02;5.30;;;;;;;10.91;100.00;100872.69;5010962;28;20501;-75
2023/01/02 00:26:32;;;;;;;11.52;5.25;;;;;;;10.88;100.00;100863.88;5011138;28;20041;-75
2023/01/02 00:28:57;;;;;;;12.45;5.38;;;;;;;10.90;100.00;100870.06;5011088;28;20037;-75
2023/01/02 00:31:23;;;;;;;10.93;5.03;;;;;;;10.91;100.00;100858.19;5009599;28;20363;-75
2023/01/02 00:33:48;;;;;;;20.33;5.18;;;;;;;10.90;100.00;100856.44;5011703;28;20073;-75
2023/01/02 00:36:14;;;;;;;10.45;4.80;;;;;;;10.89;100.00;100855.59;5054387;28;20109;-75
2023/01/02 00:38:39;;;;;;;16.40;5.57;;;;;;;10.87;100.00;100860.28;5029637;28;20037;-75
2023/01/02 00:41:05;;;;;;;10.90;4.68;;;;;;;10.86;100.00;100853.06;5011337;28;20473;-75
2023/01/02 00:43:32;;;;;;;11.27;5.13;;;;;;;10.87;100.00;100849.41;5010967;28;20038;-75
2023/01/02 00:45:57;;;;;;;13.70;5.88;;;;;;;10.86;100.00;100850.34;5010706;28;20041;-75
2023/01/02 00:48:23;;;;;;;16.77;6.95;;;;;;;10.88;100.00;100858.44;5011311;28;20022;-75
2023/01/02 00:50:49;;;;;;;13.82;5.60;;;;;;;10.89;100.00;100857.44;5013985;28;20128;-75
2023/01/02 00:53:15;;;;;;;14.27;5.70;;;;;;;10.90;100.00;100857.31;5062506;28;20115;-75
2023/01/02 00:55:43;;;;;;;15.57;6.00;;;;;;;10.94;100.00;100841.63;5015272;28;20034;-75
2023/01/02 00:58:09;;;;;;;11.63;5.20;;;;;;;10.97;100.00;100839.56;5010546;28;20406;-75
2023/01/02 01:00:34;;;;;;;10.00;4.43;;;;;;;10.99;100.00;100839.44;5010468;28;20040;-75
2023/01/02 01:02:59;;;;;;;13.80;5.20;;;;;;;10.97;100.00;100836.84;5023081;28;20495;-75
2023/01/02 01:05:26;;;;;;;10.48;5.45;;;;;;;10.98;100.00;100833.13;5025698;28;20405;-75
2023/01/02 01:07:56;;;;;;;12.02;5.15;;;;;;;11.02;100.00;100830.19;5010460;28;20125;-75
2023/01/02 01:10:23;;;;;;;10.43;4.97;;;;;;;11.05;100.00;100830.84;5010301;28;20120;-75
2023/01/02 01:12:48;;;;;;;11.63;5.10;;;;;;;11.05;100.00;100833.56;5024735;28;20140;-75
2023/01/02 01:15:14;;;;;;;14.90;5.10;;;;;;;11.09;100.00;100832.31;5010604;28;20099;-75
2023/01/02 01:17:39;;;;;;;9.88;4.68;;;;;;;11.11;100.00;100829.50;5010276;28;20041;-75
2023/01/02 01:20:06;;;;;;;9.93;4.88;;;;;;;11.17;100.00;100829.03;5010306;28;20050;-75
2023/01/02 01:22:31;;;;;;;18.90;6.18;;;;;;;11.17;100.00;100821.72;5020881;28;20534;-75
2023/01/02 01:24:56;;;;;;;16.67;4.82;;;;;;;11.22;100.00;100829.56;5030075;28;20116;-75
2023/01/02 01:27:22;;;;;;;12.20;4.38;;;;;;;11.23;100.00;100832.16;5012092;28;20049;-75
2023/01/02 01:29:47;;;;;;;10.25;4.68;;;;;;;11.23;100.00;100826.69;5024457;28;20421;-76
2023/01/02 01:32:13;;;;;;;14.70;4.97;;;;;;;11.23;100.00;100829.44;5029942;28;20044;-75
2023/01/02 01:34:38;;;;;;;12.75;4.53;;;;;;;11.23;100.00;100826.69;5030294;28;20044;-75
2023/01/02 01:37:03;;;;;;;10.15;4.72;;;;;;;11.28;100.00;100822.75;5028077;28;20029;-75
2023/01/02 01:39:29;;;;;;;12.40;4.32;;;;;;;11.31;100.00;100825.28;5029548;28;20018;-75
2023/01/02 01:41:54;;;;;;;6.18;4.45;;;;;;;11.31;100.00;100828.00;5015145;28;20343;-76
2023/01/02 01:44:41;;;;;;;12.45;4.57;;;;;;;11.32;100.00;100830.59;5021956;28;20461;-75
2023/01/02 01:47:35;;;;;;;8.13;3.97;;;;;;;11.34;100.00;100841.38;5029558;28;20103;-75
2023/01/02 01:50:06;;;;;;;11.43;3.72;;;;;;;11.35;100.00;100835.81;5027958;28;20041;-75
2023/01/02 01:52:34;;;;;;;15.07;4.18;;;;;;;11.39;100.00;100844.63;5029324;28;20038;-76
2023/01/02 01:54:59;;;;;;;12.50;5.53;;;;;;;11.39;100.00;100845.50;5029728;28;20064;-76
2023/01/02 01:57:32;;;;;;;12.18;4.45;;;;;;;11.37;100.00;100846.59;5011315;28;20848;-76
2023/01/02 02:00:00;;;;;;;11.35;4.10;;;;;;;11.39;100.00;100847.34;5009894;28;20069;-76
2023/01/02 02:02:27;;;;;;;12.80;4.38;;;;;;;11.37;100.00;100849.31;5009735;28;20410;-76
2023/01/02 02:04:54;;;;;;;9.18;4.03;;;;;;;11.39;100.00;100856.38;5010043;28;20128;-76
2023/01/02 02:07:19;;;;;;;9.50;4.50;;;;;;;11.35;100.00;100846.72;5024705;28;20485;-75
2023/01/02 02:09:55;;;;;;;10.18;4.22;;;;;;;11.36;100.00;100853.88;5009583;28;20080;-75
2023/01/02 02:12:22;;;;;;;8.30;4.50;;;;;;;11.36;100.00;100845.72;5041570;28;20038;-76
2023/01/02 02:14:48;;;;;;;9.70;4.40;;;;;;;11.36;100.00;100843.00;5009935;28;20061;-75
2023/01/02 02:17:33;;;;;;;10.07;4.32;;;;;;;11.39;100.00;100850.06;5007962;28;20076;-75
2023/01/02 02:20:29;;;;;;;12.23;3.85;;;;;;;11.39;100.00;100844.63;5041285;28;20050;-76
2023/01/02 02:23:16;;;;;;;13.50;4.50;;;;;;;11.39;100.00;100852.81;5013175;28;20049;-76
2023/01/02 02:26:00;;;;;;;8.75;4.40;;;;;;;11.35;100.00;100849.44;5023228;28;20042;-75
2023/01/02 02:29:10;;;;;;;10.60;4.13;;;;;;;11.36;100.00;100853.88;5027685;28;20099;-75
2023/01/02 02:31:45;;;;;;;17.80;4.65;;;;;;;11.35;100.00;100852.16;5028577;28;20041;-75
2023/01/02 02:34:50;;;;;;;12.02;4.28;;;;;;;11.36;100.00;100853.03;5026492;28;20303;-75
2023/01/02 02:37:40;;;;;;;10.10;4.35;;;;;;;11.39;100.00;100855.53;5024125;28;20053;-75
2023/01/02 02:40:17;;;;;;;8.57;3.90;;;;;;;11.34;100.00;100846.84;5027327;28;20096;-75
2023/01/02 02:42:59;;;;;;;10.25;3.75;;;;;;;11.35;100.00;100854.00;5008079;28;20037;-75
2023/01/02 02:45:51;;;;;;;9.35;4.05;;;;;;;11.38;100.00;100856.50;5009024;28;20111;-75
2023/01/02 02:48:29;;;;;;;11.00;4.07;;;;;;;11.38;100.00;100853.78;5009464;28;20038;-75
2023/01/02 02:51:06;;;;;;;11.30;3.85;;;;;;;11.39;100.00;100841.91;5008634;28;20470;-75
2023/01/02 02:53:39;;;;;;;10.65;4.53;;;;;;;11.41;100.00;100848.09;5008511;28;20104;-75
2023/01/02 02:56:07;;;;;;;9.75;3.78;;;;;;;11.41;100.00;100850.81;5012725;28;20029;-75
2023/01/02 02:58:34;;;;;;;7.82;3.60;;;;;;;11.41;100.00;100846.22;5026481;28;20120;-75
2023/01/02 03:01:06;;;;;;;10.82;3.40;;;;;;;11.45;100.00;100847.75;5009041;28;20449;-75
2023/01/02 03:03:32;;;;;;;12.00;3.72;;;;;;;11.43;100.00;100847.00;5009265;28;20042;-75
2023/01/02 03:06:20;;;;;;;12.02;3.92;;;;;;;11.47;100.00;100847.63;5017997;28;20076;-75
2023/01/02 03:09:24;;;;;;;11.05;4.00;;;;;;;11.47;100.00;100842.16;5028436;28;20469;-75
2023/01/02 03:12:11;;;;;;;11.32;4.40;;;;;;;11.45;100.00;100850.47;5011371;28;20054;-76
2023/01/02 03:15:03;;;;;;;8.52;4.28;;;;;;;11.45;100.00;100841.44;5023741;28;20041;-75
2023/01/02 03:17:52;;;;;;;5.05;3.08;;;;;;;11.45;100.00;100845.03;4985339;28;20096;-75
2023/01/02 03:20:22;;;;;;;11.43;3.88;;;;;;;11.44;100.00;100843.28;5008474;28;20074;-75
2023/01/02 03:22:54;;;;;;;12.05;4.30;;;;;;;11.43;100.00;100847.00;5008863;28;20096;-75
2023/01/02 03:25:21;;;;;;;10.55;3.78;;;;;;;11.41;100.00;100843.50;5008837;28;20485;-75
2023/01/02 03:27:49;;;;;;;10.43;5.32;;;;;;;11.42;100.00;100828.03;5013173;28;20037;-75
2023/01/02 03:30:20;;;;;;;8.30;4.03;;;;;;;11.45;100.00;100849.59;5027061;28;20041;-75
2023/01/02 03:33:14;;;;;;;6.05;3.40;;;;;;;11.37;100.00;100831.09;5028185;28;20049;-75
2023/01/02 03:35:43;;;;;;;14.18;4.22;;;;;;;11.42;100.00;100839.81;5019888;28;20057;-76
2023/01/02 03:38:14;;;;;;;10.63;3.50;;;;;;;11.45;100.00;100846.88;5012099;28;20462;-75
2023/01/02 03:40:46;;;;;;;10.95;4.18;;;;;;;11.46;100.00;100846.75;5008648;28;20033;-75
2023/01/02 03:43:17;;;;;;;7.10;3.25;;;;;;;11.46;100.00;100849.47;5056806;28;20391;-75
2023/01/02 03:45:49;;;;;;;10.55;3.28;;;;;;;11.46;100.00;100837.72;5026811;28;20037;-75
2023/01/02 03:48:37;;;;;;;10.10;3.67;;;;;;;11.49;100.00;100857.41;5028538;28;20068;-75
2023/01/02 03:51:03;;;;;;;8.95;3.28;;;;;;;11.48;100.00;100860.28;5025477;28;20485;-75
2023/01/02 03:53:30;;;;;;;7.38;3.65;;;;;;;11.49;100.00;100857.41;5027814;28;20048;-75
2023/01/02 03:56:23;;;;;;;10.38;3.83;;;;;;;11.51;100.00;100860.03;5021978;28;20022;-75
2023/01/02 03:59:04;;;;;;;7.47;3.97;;;;;;;11.51;100.00;100865.47;5020599;28;20050;-75
2023/01/02 04:01:35;;;;;;;9.10;3.53;;;;;;;11.49;100.00;100862.00;5007187;28;20037;-75
2023/01/02 04:04:27;;;;;;;8.00;3.63;;;;;;;11.50;100.00;100861.88;5008002;28;20497;-75
2023/01/02 04:06:58;;;;;;;11.00;3.30;;;;;;;11.51;100.00;100873.63;5027491;28;20053;-75
2023/01/02 04:09:27;;;;;;;7.60;3.50;;;;;;;11.53;100.00;100873.56;5031496;28;20048;-75
2023/01/02 04:12:02;;;;;;;7.20;3.42;;;;;;;11.52;100.00;100874.50;5002082;28;20153;-75
2023/01/02 04:14:34;;;;;;;9.80;3.38;;;;;;;11.50;100.00;100871.91;5011972;28;20400;-76
2023/01/02 04:17:03;;;;;;;10.73;3.83;;;;;;;11.48;100.00;100873.91;5010360;28;20038;-75
2023/01/02 04:19:37;;;;;;;8.85;4.07;;;;;;;11.45;100.00;100874.13;5010411;28;20054;-76
2023/01/02 04:22:08;;;;;;;8.02;3.47;;;;;;;11.45;100.00;100879.56;5011660;28;20065;-75
2023/01/02 04:24:42;;;;;;;10.32;3.67;;;;;;;11.43;100.00;100879.69;5011689;28;20037;-75
2023/01/02 04:27:22;;;;;;;12.23;3.72;;;;;;;11.42;100.00;100888.84;5011375;28;20042;-75
2023/01/02 04:29:48;;;;;;;9.85;4.20;;;;;;;11.42;100.00;100879.78;5011952;28;20069;-76
2023/01/02 04:32:27;;;;;;;8.50;3.65;;;;;;;11.42;100.00;100888.84;5010008;28;20108;-76
2023/01/02 04:34:54;;;;;;;11.05;3.90;;;;;;;11.40;100.00;100884.50;5011807;28;20034;-76
2023/01/02 04:37:30;;;;;;;6.38;4.13;;;;;;;11.41;100.00;100887.09;5015264;28;20380;-75
2023/01/02 04:40:01;;;;;;;9.73;4.35;;;;;;;11.41;100.00;100888.94;5010837;28;20040;-76
2023/01/02 04:42:26;;;;;;;15.27;4.07;;;;;;;11.37;100.00;100891.03;5025997;28;20496;-76
2023/01/02 04:44:52;;;;;;;10.50;3.95;;;;;;;11.37;100.00;100896.47;5014832;28;20022;-76
2023/01/02 04:47:17;;;;;;;13.05;4.85;;;;;;;11.37;100.00;100893.75;5011792;28;20477;-76
2023/01/02 04:49:44;;;;;;;9.68;3.75;;;;;;;11.38;100.00;100894.66;5011005;28;20478;-75
2023/01/02 04:52:09;;;;;;;10.63;3.95;;;;;;;11.39;100.00;100901.84;5009516;28;20030;-75
2023/01/02 04:54:35;;;;;;;12.98;3.40;;;;;;;11.38;100.00;100902.81;5010737;28;20048;-75
2023/01/02 04:57:00;;;;;;;9.95;3.90;;;;;;;11.38;100.00;100894.66;5014677;28;20032;-75
2023/01/02 04:59:25;;;;;;;11.65;4.18;;;;;;;11.40;100.00;100893.53;5011055;28;20121;-75
2023/01/02 05:01:51;;;;;;;11.40;3.42;;;;;;;11.40;100.00;100904.44;5011434;28;20022;-75
2023/01/02 05:04:16;;;;;;;10.20;3.80;;;;;;;11.40;100.00;100907.16;5017195;28;20122;-75
2023/01/02 05:06:41;;;;;;;11.57;4.00;;;;;;;11.41;100.00;100919.78;5030634;28;20516;-75
2023/01/02 05:09:07;;;;;;;7.72;3.58;;;;;;;11.40;100.00;100909.00;5030871;28;20112;-76
2023/01/02 05:11:32;;;;;;;7.18;3.80;;;;;;;11.43;100.00;100919.69;5022331;28;20026;-75
2023/01/02 05:13:57;;;;;;;9.35;3.75;;;;;;;11.41;100.00;100908.88;5022106;28;20465;-75
2023/01/02 05:16:23;;;;;;;8.60;3.63;;;;;;;11.41;100.00;100908.03;5010588;28;20508;-75
2023/01/02 05:18:48;;;;;;;7.63;3.75;;;;;;;11.43;100.00;100915.09;5010325;28;20524;-75
2023/01/02 05:24:00;;;;;;;8.70;3.65;;;;;;;11.42;100.00;100921.53;5010396;28;20124;-75
2023/01/02 05:26:26;;;;;;;8.40;3.47;;;;;;;11.39;100.00;100919.03;5012978;28;20385;-75
2023/01/02 05:28:52;;;;;;;7.60;2.95;;;;;;;11.40;100.00;100925.34;5022393;28;20053;-75
2023/01/02 05:31:19;;;;;;;8.88;3.30;;;;;;;11.41;100.00;100919.78;5010268;28;20801;-75
2023/01/02 05:33:44;;;;;;;8.13;3.22;;;;;;;11.43;100.00;100927.88;5024519;28;20029;-75
2023/01/02 05:36:09;;;;;;;10.05;3.22;;;;;;;11.42;100.00;100937.88;5038555;28;20094;-76
2023/01/02 05:38:35;;;;;;;7.50;2.78;;;;;;;11.44;100.00;100932.31;5010921;28;20613;-75
2023/01/02 05:41:05;;;;;;;11.55;4.45;;;;;;;11.42;100.00;100951.50;5009745;28;20105;-75
2023/01/02 05:43:32;;;;;;;6.15;3.30;;;;;;;11.42;100.00;100943.34;5028744;28;20033;-75
2023/01/02 05:46:05;;;;;;;6.22;2.97;;;;;;;11.45;100.00;100961.28;5029488;28;20029;-75
2023/01/02 05:48:30;;;;;;;8.50;3.28;;;;;;;11.47;100.00;100964.75;5027950;28;20029;-76
2023/01/02 05:51:00;;;;;;;8.00;3.63;;;;;;;11.45;100.00;100958.56;5022180;28;20081;-75
2023/01/02 05:53:25;;;;;;;6.90;3.55;;;;;;;11.45;100.00;100967.59;5049671;28;20045;-75
2023/01/02 05:55:51;;;;;;;13.75;3.45;;;;;;;11.44;100.00;100974.06;5041620;28;20079;-75
2023/01/02 05:58:16;;;;;;;6.45;3.22;;;;;;;11.45;100.00;100964.03;5026783;28;20087;-75
2023/01/02 06:00:41;;;;;;;6.82;3.17;;;;;;;11.44;100.00;100962.28;5028077;28;20041;-75
2023/01/02 06:03:07;;;;;;;8.30;2.63;;;;;;;11.45;100.00;100975.78;5028523;28;20041;-75
2023/01/02 06:05:33;;;;;;;8.52;2.97;;;;;;;11.45;100.00;100967.59;5026120;28;20040;-75
2023/01/02 06:07:58;;;;;;;9.10;2.55;;;;;;;11.44;100.00;100970.47;5008244;28;20057;-75
2023/01/02 06:10:24;;;;;;;7.93;3.42;;;;;;;11.42;100.00;100969.69;5017917;28;20438;-75
2023/01/02 06:12:49;;;;;;;4.63;3.05;;;;;;;11.41;100.00;100978.84;5009597;28;20459;-76
2023/01/02 06:15:15;;;;;;;5.93;2.85;;;;;;;11.36;100.00;100978.31;5009234;28;20115;-76
2023/01/02 06:17:40;;;;;;;7.55;2.90;;;;;;;11.32;100.00;100972.22;5009559;28;20026;-76
2023/01/02 06:20:06;;;;;;;9.38;4.20;;;;;;;11.32;100.00;100988.56;5008035;28;20050;-76
2023/01/02 06:22:31;;;;;;;5.32;3.00;;;;;;;11.29;100.00;100999.69;5009389;28;20025;-76
2023/01/02 06:24:56;;;;;;;8.18;3.05;;;;;;;11.24;100.00;101000.03;5009177;28;20037;-76
2023/01/02 06:27:22;;;;;;;6.70;2.95;;;;;;;11.23;100.00;101014.63;5018380;28;20489;-76
2023/01/02 06:29:47;;;;;;;7.82;2.80;;;;;;;11.23;100.00;101054.59;5014630;28;20343;-76
2023/01/02 06:32:13;;;;;;;8.88;2.20;;;;;;;11.17;100.00;101068.66;5009109;28;20034;-76
2023/01/02 06:34:38;;;;;;;3.75;1.50;;;;;;;11.05;100.00;101078.59;5007887;28;20045;-76
2023/01/02 06:37:04;;;;;;;4.70;1.35;;;;;;;10.93;100.00;101077.59;5024890;28;20521;-76
2023/01/02 06:39:29;;;;;;;1.80;0.95;;;;;;;10.80;100.00;101090.31;5028918;28;20026;-76
2023/01/02 06:41:54;;;;;;;2.05;1.30;;;;;;;10.69;100.00;101091.06;5016116;28;20093;-76
2023/01/02 06:44:20;;;;;;;2.08;1.30;;;;;;;10.62;100.00;101095.16;5009308;28;20066;-76
2023/01/02 06:46:45;;;;;;;2.10;1.17;;;;;;;10.57;100.00;101096.47;5021281;28;20449;-76
2023/01/02 06:49:10;;;;;;;0.75;0.75;;;;;;;10.50;100.00;101116.91;5060953;28;20067;-76
2023/01/02 06:51:36;;;;;;;0.85;0.60;;;;;;;10.39;100.00;101125.78;5028718;28;20081;-76
2023/01/02 06:54:01;;;;;;;0.95;0.82;;;;;;;10.33;100.00;101124.34;5016863;28;20034;-76
2023/01/02 06:56:27;;;;;;;0.70;0.70;;;;;;;10.28;100.00;101131.94;5008810;28;20485;-76
2023/01/02 06:58:52;;;;;;;1.30;0.60;;;;;;;10.20;100.00;101129.69;5014961;28;20033;-76
2023/01/02 07:01:22;;;;;;;1.05;0.50;;;;;;;10.17;100.00;101140.78;5027791;28;20539;-76
2023/01/02 07:03:47;;;;;;;0.73;0.70;;;;;;;10.12;100.00;101150.22;5022296;28;20042;-76
2023/01/02 07:06:15;;;;;;;2.63;0.80;;;;;;;10.05;100.00;101159.75;5020376;28;20064;-76
2023/01/02 07:08:42;;;;;;;0.60;0.60;;;;;;;9.97;100.00;101169.25;5027325;28;20132;-76
2023/01/02 07:11:16;;;;;;;1.58;0.70;;;;;;;9.92;100.00;101174.13;5013363;28;20477;-76
2023/01/02 07:13:44;;;;;;;0.82;0.80;;;;;;;9.87;100.00;101178.09;5022761;28;20126;-76
2023/01/02 07:16:13;;;;;;;1.38;1.27;;;;;;;9.78;100.00;101195.00;5008778;28;20033;-76
2023/01/02 07:18:38;;;;;;;2.55;1.30;;;;;;;9.75;100.00;101196.09;5008808;28;20125;-76
2023/01/02 07:21:05;;;;;;;1.80;1.33;;;;;;;9.70;100.00;101198.22;5017109;28;20125;-76
2023/01/02 07:23:31;;;;;;;1.63;1.10;;;;;;;9.68;100.00;101211.00;5008970;28;20030;-76
2023/01/02 07:25:58;;;;;;;2.03;1.20;;;;;;;9.64;100.00;101212.16;5008769;28;20024;-76
2023/01/02 07:28:26;;;;;;;1.73;1.25;;;;;;;9.63;100.00;101227.59;5009125;28;20064;-76
2023/01/02 07:30:56;;;;;;;1.83;1.45;;;;;;;9.61;100.00;101231.41;5008853;28;20141;-76
2023/01/02 07:33:21;;;;;;;3.33;1.48;;;;;;;9.59;100.00;101230.59;5009201;28;20068;-76
2023/01/02 07:35:46;;;;;;;2.17;1.70;;;;;;;9.57;100.00;101238.84;5009523;28;20042;-76
2023/01/02 07:38:12;;;;;;;3.08;1.65;;;;;;;9.54;100.00;101251.75;5007349;28;20447;-76
2023/01/02 07:40:37;;;;;;;2.22;1.83;;;;;;;9.47;100.00;101248.56;5008154;28;20347;-76
2023/01/02 07:43:02;;;;;;;2.42;1.75;;;;;;;9.47;100.00;101250.41;5010686;28;20053;-76
2023/01/02 07:45:28;;;;;;;3.15;1.92;;;;;;;9.44;100.00;101251.44;5010828;28;20057;-76
2023/01/02 07:47:53;;;;;;;2.75;2.38;;;;;;;9.42;100.00;101259.69;5012165;28;20478;-76
2023/01/02 07:50:18;;;;;;;4.88;2.80;;;;;;;9.40;100.00;101271.59;5004343;28;20044;-76
2023/01/02 07:52:44;;;;;;;3.88;2.20;;;;;;;9.38;100.00;101281.69;5031795;28;20031;-77
2023/01/02 07:55:09;;;;;;;3.53;2.50;;;;;;;9.37;100.00;101288.97;5027599;28;20141;-77
2023/01/02 07:57:35;;;;;;;4.13;2.70;;;;;;;9.36;100.00;101292.63;5011978;28;20021;-77
2023/01/02 08:00:02;;;;;;;4.88;3.25;;;;;;;9.34;100.00;101302.72;5012205;28;20030;-76
2023/01/02 08:02:37;;;;;;;5.22;3.20;;;;;;;9.33;100.00;101303.69;5012259;28;20026;-77
2023/01/02 08:05:03;;;;;;;4.75;3.33;;;;;;;9.33;100.00;101306.41;5014069;28;20409;-77
2023/01/02 08:07:28;;;;;;;6.07;3.50;;;;;;;9.31;100.00;101310.16;5058155;28;20040;-76
2023/01/02 08:09:53;;;;;;;5.93;3.95;;;;;;;9.30;100.00;101320.16;5012297;28;20045;-76
2023/01/02 08:12:19;;;;;;;6.60;4.18;;;;;;;9.32;100.00;101328.19;5021182;28;20032;-77
2023/01/02 08:14:44;;;;;;;6.38;3.75;;;;;;;9.30;100.00;101332.88;5011126;28;20540;-76
2023/01/02 08:17:09;;;;;;;6.82;4.25;;;;;;;9.31;100.00;101334.59;5043775;28;20030;-77
2023/01/02 08:19:35;;;;;;;6.03;4.15;;;;;;;9.31;100.00;101342.75;5011673;28;20049;-77
2023/01/02 08:22:00;;;;;;;6.20;4.40;;;;;;;9.31;100.00;101346.34;5011757;28;20026;-76
2023/01/02 08:24:25;;;;;;;7.50;5.00;;;;;;;9.30;100.00;101346.44;5011480;28;20042;-76
2023/01/02 08:26:51;;;;;;;7.60;5.10;;;;;;;9.27;100.00;101342.03;5019973;28;20047;-77
2023/01/02 08:29:16;;;;;;;7.90;5.90;;;;;;;9.24;100.00;101353.09;5021164;28;20040;-76
2023/01/02 08:31:41;;;;;;;7.47;5.25;;;;;;;9.26;100.00;101358.44;5043124;28;20029;-76
2023/01/02 08:34:07;;;;;;;9.00;6.15;;;;;;;9.23;100.00;101373.06;5011373;28;20030;-76
2023/01/02 08:36:32;;;;;;;7.72;5.63;;;;;;;9.20;100.00;101373.25;5012665;28;20034;-77
2023/01/02 08:38:57;;;;;;;8.18;5.80;;;;;;;9.19;100.00;101376.94;5010099;28;20053;-76
2023/01/02 08:41:37;;;;;;;7.40;5.28;;;;;;;9.16;100.00;101379.81;5046427;28;20128;-76
2023/01/02 08:44:02;;;;;;;7.47;5.07;;;;;;;9.11;100.00;101381.94;5021607;28;20037;-76
2023/01/02 08:46:30;;;;;;;6.18;4.75;;;;;;;9.07;100.00;101389.38;5019324;28;20399;-76
2023/01/02 08:48:56;;;;;;;7.32;5.28;;;;;;;9.04;100.00;101394.09;5031048;28;20336;-76
2023/01/02 08:51:21;;;;;;;9.43;5.05;;;;;;;9.01;100.00;101394.28;5025398;28;20030;-76
2023/01/02 08:53:47;;;;;;;5.97;5.13;;;;;;;9.00;100.00;101412.41;5010759;28;20535;-77
2023/01/02 08:56:41;;;;;;;9.52;5.30;;;;;;;8.99;100.00;101407.03;5014714;28;20101;-76
2023/01/02 08:59:10;;;;;;;7.47;5.03;;;;;;;8.96;100.00;101409.97;5002247;28;20062;-76
2023/01/02 09:01:36;;;;;;;9.35;5.20;;;;;;;8.94;100.00;101410.03;5011115;28;20389;-76
2023/01/02 09:04:03;;;;;;;9.40;5.18;;;;;;;8.91;100.00;101421.94;5023150;28;20461;-76
2023/01/02 09:06:30;;;;;;;7.82;5.05;;;;;;;8.90;100.00;101416.56;5062280;28;20469;-76
2023/01/02 09:08:58;;;;;;;6.63;4.90;;;;;;;8.91;100.00;101421.06;5029172;28;20469;-76
2023/01/02 09:11:27;;;;;;;6.40;4.43;;;;;;;8.90;100.00;101431.03;5019777;28;20037;-76
2023/01/02 09:13:53;;;;;;;8.65;4.38;;;;;;;8.88;100.00;101427.53;5010373;28;20375;-76
2023/01/02 09:16:18;;;;;;;6.43;4.00;;;;;;;8.84;100.00;101436.81;5042358;28;20033;-77
2023/01/02 09:18:44;;;;;;;7.35;4.30;;;;;;;8.90;100.00;101451.84;5009047;28;20066;-76
2023/01/02 09:21:09;;;;;;;6.07;4.22;;;;;;;8.91;100.00;101451.78;5010243;28;20038;-76
2023/01/02 09:23:35;;;;;;;7.03;4.25;;;;;;;8.91;100.00;101454.50;5010330;28;20021;-76
2023/01/02 09:26:03;;;;;;;5.35;4.07;;;;;;;8.93;100.00;101471.56;5010021;28;20132;-76
2023/01/02 09:28:30;;;;;;;5.78;3.88;;;;;;;8.93;100.00;101476.13;5011978;28;20022;-76
2023/01/02 09:30:56;;;;;;;5.60;4.15;;;;;;;8.92;100.00;101483.38;5030068;28;20037;-76
2023/01/02 09:33:22;;;;;;;7.53;3.95;;;;;;;8.94;100.00;101483.28;5028997;28;20033;-76
2023/01/02 09:35:47;;;;;;;7.72;4.68;;;;;;;8.94;100.00;101481.44;5029997;28;20095;-76
2023/01/02 09:38:14;;;;;;;7.78;4.03;;;;;;;8.92;100.00;101486.09;4999068;28;20025;-76
2023/01/02 09:40:49;;;;;;;6.68;4.18;;;;;;;8.96;100.00;101494.94;5009993;28;20424;-76
2023/01/02 09:43:26;;;;;;;5.57;3.80;;;;;;;8.99;100.00;101494.75;5012378;28;20577;-76
2023/01/02 09:45:56;;;;;;;7.15;3.83;;;;;;;9.03;100.00;101507.22;5028846;28;20132;-76
2023/01/02 09:48:21;;;;;;;11.45;3.85;;;;;;;9.04;100.00;101494.50;5022471;28;20168;-76
2023/01/02 09:50:48;;;;;;;7.55;3.85;;;;;;;9.03;100.00;101506.34;4992571;28;20116;-76
2023/01/02 09:53:14;;;;;;;10.63;3.65;;;;;;;9.06;100.00;101509.75;5027829;28;20045;-76
2023/01/02 09:55:53;;;;;;;7.30;4.22;;;;;;;9.09;100.00;101512.31;5027836;28;20038;-76
2023/01/02 09:58:34;;;;;;;6.03;3.40;;;;;;;9.11;100.00;101504.94;5010553;28;20120;-76
2023/01/02 10:01:01;;;;;;;10.90;3.58;;;;;;;9.07;100.00;101503.38;5029664;28;20504;-76
2023/01/02 10:03:42;;;;;;;9.05;3.50;;;;;;;9.02;100.00;101505.47;5028132;28;20029;-76
2023/01/02 10:06:18;;;;;;;5.53;3.50;;;;;;;9.03;100.00;101515.34;5008421;28;20034;-76
2023/01/02 10:09:10;;;;;;;4.85;3.83;;;;;;;9.06;100.00;101522.47;5009212;28;20034;-76
2023/01/02 10:11:52;;;;;;;7.70;3.40;;;;;;;9.07;100.00;101524.19;5016342;28;20052;-76
2023/01/02 10:14:48;;;;;;;5.32;3.38;;;;;;;9.12;100.00;101528.41;5019226;28;20036;-76
2023/01/02 10:17:16;;;;;;;4.50;3.28;;;;;;;9.13;100.00;101519.28;5009646;28;20037;-76
2023/01/02 10:20:10;;;;;;;8.23;3.22;;;;;;;9.13;100.00;101519.28;5009729;28;20053;-76
2023/01/02 10:22:41;;;;;;;5.38;3.40;;;;;;;9.16;100.00;101519.13;5005426;28;20073;-76
2023/01/02 10:25:14;;;;;;;7.50;3.45;;;;;;;9.16;100.00;101521.84;5009591;28;20029;-76
2023/01/02 10:27:55;;;;;;;3.40;2.60;;;;;;;9.17;100.00;101531.75;5009116;28;20029;-76
2023/01/02 10:30:25;;;;;;;5.50;3.08;;;;;;;9.20;100.00;101526.16;5009452;28;20041;-76
2023/01/02 10:32:59;;;;;;;4.22;2.88;;;;;;;9.25;100.00;101534.03;5009565;28;20040;-76
2023/01/02 10:35:36;;;;;;;6.18;3.53;;;;;;;9.28;100.00;101535.69;5023297;28;20041;-76
2023/01/02 10:38:02;;;;;;;4.25;2.90;;;;;;;9.27;100.00;101552.94;5028884;28;20041;-77
2023/01/02 10:40:30;;;;;;;6.20;3.35;;;;;;;9.26;100.00;101551.22;5029106;28;20385;-76
2023/01/02 10:42:58;;;;;;;4.80;3.17;;;;;;;9.25;100.00;101555.75;5008727;28;20524;-76
2023/01/02 10:45:23;;;;;;;7.28;3.70;;;;;;;9.23;100.00;101549.53;5024604;28;20033;-76
2023/01/02 10:47:48;;;;;;;6.15;3.88;;;;;;;9.22;100.00;101541.47;5028846;28;20052;-77
2023/01/02 10:50:20;;;;;;;6.22;3.83;;;;;;;9.20;100.00;101539.72;5021889;28;20018;-76
2023/01/02 10:52:49;;;;;;;6.03;3.42;;;;;;;9.24;100.00;101550.44;5022510;28;20390;-76
2023/01/02 10:55:48;;;;;;;9.70;4.10;;;;;;;9.28;100.00;101555.59;5028800;28;20057;-76
2023/01/02 10:58:22;;;;;;;8.73;4.30;;;;;;;9.28;100.00;101538.41;4988795;28;20421;-77
2023/01/02 11:00:50;;;;;;;7.68;4.13;;;;;;;9.30;100.00;101553.66;5028552;28;20524;-76
2023/01/02 11:03:21;;;;;;;8.02;4.05;;;;;;;9.34;100.00;101551.66;5026978;28;20041;-76
2023/01/02 11:05:52;;;;;;;8.30;4.88;;;;;;;9.39;100.00;101555.88;5028351;28;20064;-77
2023/01/02 11:08:20;;;;;;;8.32;5.53;;;;;;;9.42;99.90;101560.25;5008871;28;20238;-76
2023/01/02 11:10:46;;;;;;;9.88;5.40;;;;;;;9.47;100.00;101565.44;5009325;28;20028;-76
2023/01/02 11:13:15;;;;;;;8.82;5.70;;;;;;;9.50;100.00;101570.69;5010687;28;20038;-77
2023/01/02 11:15:44;;;;;;;10.85;5.82;;;;;;;9.53;99.76;101568.66;5029325;28;20040;-76
2023/01/02 11:18:19;;;;;;;9.93;6.22;;;;;;;9.57;100.00;101564.81;5030909;28;20034;-76
2023/01/02 11:20:52;;;;;;;12.32;6.18;;;;;;;9.60;99.54;101571.91;5030871;28;20057;-76
2023/01/02 11:23:21;;;;;;;10.25;6.45;;;;;;;9.59;99.79;101578.31;5021020;28;20437;-76
2023/01/02 11:25:46;;;;;;;10.52;6.80;;;;;;;9.63;99.99;101577.16;5010887;28;20030;-76
2023/01/02 11:28:19;;;;;;;9.70;6.35;;;;;;;9.59;99.07;101571.03;5012166;28;20038;-77
2023/01/02 11:30:52;;;;;;;14.02;7.30;;;;;;;9.61;99.11;101574.56;5014113;28;20072;-76
2023/01/02 11:33:23;;;;;;;;;;;;;;;9.65;99.76;101586.09;5032888;28;20167;-76